Tizayuca Airport

Jump to: basic info | weather | runways | comments

Related pages: nearby airports | nearby navaids | notams | map

Basic information (top)

Codes: MM28
Location: lon 19.874001, lat -98.943604, elev 7,600 ft / 2,316 m msl
Status: small_airport

Weather (top)

Current conditions for Licenciado Benito Juarez International Airport 27nm (50km) SSW (rec'd 2015/03/30 19:43Z):

MMMX 301943Z 01009KT 15SM SKC 22/01 A3038 NOSIG RMK HZY CU

Airport forecast for Licenciado Benito Juarez International Airport 27nm (50km) SSW (rec'd 2015/03/29 00:14Z):

TAF MMMX 292209Z 3000/3106 32008KT P6SM SCT020 BKN080 TX24/3021Z TN10/3012Z 
      TEMPO 3000/3003 6SM -RA SCT020CB BKN080 
     FM300400 04005KT P6SM SCT020 BKN080 
      BECMG 3009/3010 SCT080 
     FM301800 34006KT P6SM SCT020 
      BECMG 3020/3021 34012KT SCT020 SCT080 
      TEMPO 3022/3101 SCT020CB BKN080 
     FM310300 04005KT P6SM SCT020 SCT080

Runways (top)

01/19: 4,235 x 80 ft (1,291 x 24 m) — paved — not lighted

Latest comments (top)

No comments yet for Tizayuca Airport

More... (top)

See also NOTAMs and nearby airports and navaids, or visit the Tizayuca Airport page at the main OurAirports website..